Time;durP1;ratioP1;P1;durP2;ratioP2;P2;SDS_P1;SDS_P2;PMS_P1;PMS_P2;Temp;Humidity;BMP_temperature;BMP_pressure;BME280_temperature;BME280_humidity;BME280_pressure;Samples;Min_cycle;Max_cycle;Signal;HPM_P1;HPM_P2
2022/09/19 00:00:41;;;;;;;14.93;2.20;;;10.90;99.90;;;;;;5053228;28;20074;-54
2022/09/19 00:03:07;;;;;;;15.52;2.38;;;10.80;99.90;;;;;;5054256;28;20021;-54
2022/09/19 00:05:37;;;;;;;8.68;2.03;;;10.80;99.90;;;;;;5054098;28;20033;-54
2022/09/19 00:08:02;;;;;;;14.95;2.53;;;10.80;99.90;;;;;;5054035;28;20025;-54
2022/09/19 00:10:28;;;;;;;14.20;2.28;;;10.80;99.90;;;;;;5054085;28;20040;-54
2022/09/19 00:12:55;;;;;;;14.02;2.03;;;10.80;99.90;;;;;;5053746;28;20032;-54
2022/09/19 00:15:22;;;;;;;11.25;1.77;;;10.80;99.90;;;;;;5054633;28;20037;-55
2022/09/19 00:17:49;;;;;;;13.68;2.50;;;10.80;99.90;;;;;;5054093;28;20056;-54
2022/09/19 00:20:16;;;;;;;9.55;2.03;;;10.80;99.90;;;;;;5054492;28;20075;-54
2022/09/19 00:24:45;;;;;;;14.77;2.50;;;10.80;99.90;;;;;;5054472;28;20033;-54
2022/09/19 00:25:28;;;;;;;14.63;2.78;;;10.80;99.90;;;;;;5053668;28;20950;-54
2022/09/19 00:27:54;;;;;;;13.35;2.08;;;10.80;99.90;;;;;;5054994;28;20025;-54
2022/09/19 00:30:20;;;;;;;9.80;1.80;;;10.80;99.90;;;;;;5054548;28;20025;-54
2022/09/19 00:32:46;;;;;;;14.55;2.33;;;10.70;99.90;;;;;;5054178;28;20509;-54
2022/09/19 00:35:12;;;;;;;9.77;2.17;;;10.70;99.90;;;;;;5053848;28;20491;-53
2022/09/19 00:37:38;;;;;;;13.95;2.13;;;10.70;99.90;;;;;;5054562;28;20025;-54
2022/09/19 00:40:05;;;;;;;16.83;2.53;;;10.70;99.90;;;;;;5057905;28;20025;-54
2022/09/19 00:42:33;;;;;;;12.02;2.60;;;10.60;99.90;;;;;;5057554;28;20028;-54
2022/09/19 00:44:58;;;;;;;12.50;2.50;;;10.60;99.90;;;;;;5057876;28;20077;-54
2022/09/19 00:47:33;;;;;;;11.30;2.58;;;10.60;99.90;;;;;;5058000;28;20028;-53
2022/09/19 00:50:00;;;;;;;13.40;2.50;;;10.60;99.90;;;;;;5058157;28;20021;-54
2022/09/19 00:52:45;;;;;;;14.23;2.58;;;10.60;99.90;;;;;;5057973;28;20504;-54
2022/09/19 00:55:10;;;;;;;12.27;2.50;;;10.60;99.90;;;;;;5058026;28;20017;-55
2022/09/19 00:58:15;;;;;;;8.57;2.60;;;10.60;99.90;;;;;;5057572;28;20108;-54
2022/09/19 01:00:40;;;;;;;14.30;2.83;;;10.60;99.90;;;;;;5041456;28;20494;-54
2022/09/19 01:03:09;;;;;;;10.35;2.30;;;10.60;99.90;;;;;;5057503;28;20128;-55
2022/09/19 01:06:03;;;;;;;10.00;2.20;;;10.50;99.90;;;;;;5057864;28;20040;-59
2022/09/19 01:08:48;;;;;;;12.27;2.92;;;10.60;99.90;;;;;;5040108;28;20053;-54
2022/09/19 01:11:20;;;;;;;11.07;2.75;;;10.60;99.90;;;;;;5056524;28;20025;-54
2022/09/19 01:14:17;;;;;;;13.80;2.50;;;10.60;99.90;;;;;;5057276;28;20029;-54
2022/09/19 01:17:06;;;;;;;12.05;2.78;;;10.60;99.90;;;;;;5035501;28;20064;-54
2022/09/19 01:19:58;;;;;;;16.50;2.95;;;10.60;99.90;;;;;;5057118;28;20060;-54
2022/09/19 01:22:27;;;;;;;11.85;2.45;;;10.60;99.90;;;;;;5056929;28;20029;-54
2022/09/19 01:25:00;;;;;;;16.67;3.13;;;10.70;99.90;;;;;;5057231;28;20500;-54
2022/09/19 01:28:11;;;;;;;16.63;3.40;;;10.70;99.90;;;;;;5056722;28;20036;-54
2022/09/19 01:30:47;;;;;;;13.13;3.05;;;10.70;99.90;;;;;;5014283;28;20041;-54
2022/09/19 01:33:18;;;;;;;14.20;3.50;;;10.60;99.90;;;;;;5052122;28;20120;-54
2022/09/19 01:35:50;;;;;;;18.83;3.20;;;10.60;99.90;;;;;;5056674;28;20029;-54
2022/09/19 01:38:22;;;;;;;18.27;4.07;;;10.60;99.90;;;;;;5057253;28;20033;-54
2022/09/19 01:40:50;;;;;;;15.02;3.35;;;10.60;99.90;;;;;;5057110;28;20314;-54
2022/09/19 01:43:18;;;;;;;11.13;2.75;;;10.60;99.90;;;;;;5057177;28;20040;-53
2022/09/19 01:45:44;;;;;;;14.40;2.70;;;10.60;99.90;;;;;;5057412;28;20112;-54
2022/09/19 01:49:08;;;;;;;15.35;3.20;;;10.50;99.90;;;;;;5057306;28;20457;-54
2022/09/19 01:51:44;;;;;;;11.25;2.60;;;10.50;99.90;;;;;;4996436;28;20517;-54
2022/09/19 01:54:23;;;;;;;13.90;3.08;;;10.40;99.90;;;;;;5056442;28;20029;-54
2022/09/19 01:56:54;;;;;;;14.00;2.72;;;10.50;99.90;;;;;;5057186;28;20087;-53
2022/09/19 02:00:05;;;;;;;15.23;2.88;;;10.50;99.90;;;;;;5057403;28;20025;-54
2022/09/19 02:03:08;;;;;;;15.23;3.17;;;10.50;99.90;;;;;;5056601;28;20041;-54
2022/09/19 02:06:00;;;;;;;12.55;3.03;;;10.40;99.90;;;;;;5056582;28;20041;-54
2022/09/19 02:08:49;;;;;;;12.15;2.70;;;10.50;99.90;;;;;;5056681;28;20021;-54
2022/09/19 02:11:21;;;;;;;19.65;3.15;;;10.50;99.90;;;;;;5056066;28;20096;-54
2022/09/19 02:13:56;;;;;;;11.10;3.05;;;10.50;99.90;;;;;;5054284;28;20127;-54
2022/09/19 02:16:30;;;;;;;10.57;2.88;;;10.40;99.90;;;;;;5056522;28;20155;-54
2022/09/19 02:19:15;;;;;;;14.15;3.05;;;10.30;99.90;;;;;;5056976;28;20024;-54
2022/09/19 02:21:48;;;;;;;13.05;3.35;;;10.30;99.90;;;;;;5055202;28;20112;-54
2022/09/19 02:24:18;;;;;;;12.68;2.78;;;10.30;99.90;;;;;;5056143;28;20029;-54
2022/09/19 02:26:49;;;;;;;17.88;2.88;;;10.30;99.90;;;;;;5056335;28;20029;-54
2022/09/19 02:29:20;;;;;;;12.98;3.00;;;10.30;99.90;;;;;;5056959;28;20029;-55
2022/09/19 02:31:46;;;;;;;23.77;4.13;;;10.30;99.90;;;;;;5056302;28;20040;-55
2022/09/19 02:34:12;;;;;;;14.35;3.83;;;10.30;99.90;;;;;;5054444;28;20036;-54
2022/09/19 02:36:55;;;;;;;13.40;3.05;;;10.30;99.90;;;;;;5056534;28;20029;-53
2022/09/19 02:39:27;;;;;;;14.10;3.30;;;10.30;99.90;;;;;;5071622;28;20167;-54
2022/09/19 02:42:07;;;;;;;12.55;3.15;;;10.30;99.90;;;;;;5056196;28;20385;-54
2022/09/19 02:45:03;;;;;;;13.82;2.83;;;10.30;99.90;;;;;;5056076;28;20478;-54
2022/09/19 02:47:48;;;;;;;11.07;3.05;;;10.30;99.90;;;;;;5055911;28;20029;-54
2022/09/19 02:50:48;;;;;;;18.00;3.67;;;10.30;99.90;;;;;;5055986;28;20604;-55
2022/09/19 02:53:21;;;;;;;10.15;2.83;;;10.30;99.90;;;;;;5053699;28;20028;-54
2022/09/19 02:55:52;;;;;;;;;;;10.30;99.90;;;;;;5055798;28;20029;-54
2022/09/19 02:58:21;;;;;;;10.40;3.10;;;10.30;99.90;;;;;;5055121;28;19919;-54
2022/09/19 03:00:52;;;;;;;21.17;3.90;;;10.30;99.90;;;;;;5055235;28;20370;-54
2022/09/19 03:06:24;;;;;;;14.63;3.28;;;10.30;99.90;;;;;;5056102;28;20040;-54
2022/09/19 03:08:54;;;;;;;13.32;2.75;;;10.20;99.90;;;;;;5071369;28;20029;-54
2022/09/19 03:11:23;;;;;;;8.35;2.65;;;10.20;99.90;;;;;;5055657;28;20036;-54
2022/09/19 03:13:49;;;;;;;11.95;2.85;;;10.20;99.90;;;;;;5055602;28;20025;-54
2022/09/19 03:16:17;;;;;;;10.45;2.40;;;10.20;99.90;;;;;;5055852;28;20086;-54
2022/09/19 03:18:46;;;;;;;11.20;2.83;;;10.20;99.90;;;;;;5055430;28;20025;-54
2022/09/19 03:21:13;;;;;;;15.32;3.00;;;10.10;99.90;;;;;;5055276;28;20454;-53
2022/09/19 03:23:45;;;;;;;15.02;2.90;;;10.10;99.90;;;;;;5055367;28;20040;-53
2022/09/19 03:26:14;;;;;;;13.75;3.13;;;10.20;99.90;;;;;;5055306;28;20389;-54
2022/09/19 03:28:39;;;;;;;18.13;3.35;;;10.10;99.90;;;;;;5055673;28;20082;-53
2022/09/19 03:31:06;;;;;;;15.45;2.72;;;10.20;99.90;;;;;;5055324;28;20061;-55
2022/09/19 03:33:32;;;;;;;10.65;2.80;;;10.10;99.90;;;;;;5055283;28;20131;-54
2022/09/19 03:36:01;;;;;;;13.52;2.83;;;10.10;99.90;;;;;;5055091;28;20112;-54
2022/09/19 03:38:27;;;;;;;11.90;3.13;;;10.20;99.90;;;;;;5055337;28;20024;-54
2022/09/19 03:40:53;;;;;;;11.05;2.88;;;10.30;99.90;;;;;;5055403;28;20074;-54
2022/09/19 03:43:20;;;;;;;15.10;3.13;;;10.30;99.90;;;;;;5055604;28;20025;-54
2022/09/19 03:45:45;;;;;;;14.43;2.75;;;10.30;99.90;;;;;;5055048;28;20021;-54
2022/09/19 03:48:11;;;;;;;12.45;2.85;;;10.30;99.90;;;;;;5069901;28;20036;-54
2022/09/19 03:50:36;;;;;;;16.92;3.10;;;10.30;99.90;;;;;;5054704;28;20031;-55
2022/09/19 03:53:02;;;;;;;13.43;2.90;;;10.30;99.90;;;;;;5054793;28;20032;-55
2022/09/19 03:55:28;;;;;;;18.13;3.03;;;10.30;99.90;;;;;;5054896;28;20123;-54
2022/09/19 03:57:53;;;;;;;9.18;2.60;;;10.30;99.90;;;;;;5054840;28;20039;-53
2022/09/19 04:00:19;;;;;;;14.50;3.42;;;10.40;99.90;;;;;;5054887;28;20078;-54
2022/09/19 04:02:45;;;;;;;12.63;3.22;;;10.40;99.90;;;;;;5054448;28;20041;-54
2022/09/19 04:05:12;;;;;;;11.77;2.75;;;10.50;99.90;;;;;;5054963;28;20096;-54
2022/09/19 04:07:38;;;;;;;13.98;3.03;;;10.50;99.90;;;;;;5055332;28;20033;-53
2022/09/19 04:10:05;;;;;;;13.40;3.33;;;10.50;99.90;;;;;;5054796;28;20021;-54
2022/09/19 04:12:33;;;;;;;16.92;3.22;;;10.50;99.90;;;;;;5054740;28;20025;-53
2022/09/19 04:14:59;;;;;;;12.85;3.17;;;10.50;99.90;;;;;;5059461;28;20024;-54
2022/09/19 04:17:27;;;;;;;15.75;3.40;;;10.50;99.90;;;;;;5059027;28;20474;-53
2022/09/19 04:19:53;;;;;;;8.50;2.83;;;10.60;99.90;;;;;;5058815;28;20500;-54
2022/09/19 04:22:20;;;;;;;14.60;3.72;;;10.50;99.90;;;;;;5058692;28;20047;-54
2022/09/19 04:24:46;;;;;;;15.27;3.25;;;10.50;99.90;;;;;;5058861;28;20075;-54
2022/09/19 04:27:13;;;;;;;12.73;3.67;;;10.50;99.90;;;;;;5058488;28;20033;-54
2022/09/19 04:29:40;;;;;;;13.77;3.50;;;10.60;99.90;;;;;;5059216;28;20036;-54
2022/09/19 04:32:06;;;;;;;12.30;3.00;;;10.50;99.90;;;;;;5059320;28;20099;-53
2022/09/19 04:34:33;;;;;;;17.60;3.08;;;10.60;99.90;;;;;;5058703;28;20021;-54
2022/09/19 04:37:02;;;;;;;12.07;2.83;;;10.50;99.90;;;;;;5058584;28;20448;-54
2022/09/19 04:39:29;;;;;;;15.18;3.03;;;10.50;99.90;;;;;;5059052;28;20020;-54
2022/09/19 04:41:56;;;;;;;13.77;3.28;;;10.50;99.90;;;;;;5058467;28;20571;-54
2022/09/19 04:44:22;;;;;;;15.70;2.88;;;10.70;99.90;;;;;;5059238;28;20032;-54
2022/09/19 04:46:50;;;;;;;15.07;2.92;;;10.70;99.90;;;;;;5058491;28;20570;-54
2022/09/19 04:49:16;;;;;;;9.48;2.47;;;10.70;99.90;;;;;;5059167;28;20485;-54
2022/09/19 04:51:42;;;;;;;12.07;2.70;;;10.80;99.90;;;;;;5058704;28;20052;-54
2022/09/19 04:54:09;;;;;;;9.20;2.30;;;10.80;99.90;;;;;;5058481;28;20036;-54
2022/09/19 04:56:34;;;;;;;10.80;2.72;;;10.80;99.90;;;;;;5057804;28;20039;-54
2022/09/19 04:59:00;;;;;;;9.10;2.50;;;10.70;99.90;;;;;;5058983;28;20025;-54
2022/09/19 05:01:27;;;;;;;8.77;2.60;;;10.70;99.90;;;;;;5058713;28;20056;-54
2022/09/19 05:03:52;;;;;;;9.35;2.72;;;10.80;99.90;;;;;;5074318;28;20025;-54
2022/09/19 05:06:18;;;;;;;15.35;3.25;;;10.80;99.90;;;;;;5057801;28;20056;-58
2022/09/19 05:08:44;;;;;;;10.55;2.90;;;10.80;99.90;;;;;;5058854;28;20056;-54
2022/09/19 05:11:10;;;;;;;17.60;3.58;;;10.90;99.90;;;;;;5058364;28;20025;-54
2022/09/19 05:13:40;;;;;;;8.77;2.72;;;10.90;99.90;;;;;;5058617;28;20401;-54
2022/09/19 05:16:07;;;;;;;12.68;3.15;;;10.90;99.90;;;;;;5058435;28;20489;-54
2022/09/19 05:18:35;;;;;;;11.88;3.70;;;10.80;99.90;;;;;;5059302;28;20029;-54
2022/09/19 05:21:12;;;;;;;12.70;3.22;;;10.80;99.90;;;;;;5058310;28;20025;-54
2022/09/19 05:23:38;;;;;;;18.83;3.75;;;10.90;99.90;;;;;;5057659;28;20040;-54
2022/09/19 05:26:06;;;;;;;8.90;3.42;;;10.90;99.90;;;;;;5058596;28;20036;-54
2022/09/19 05:28:33;;;;;;;13.77;3.25;;;10.80;99.90;;;;;;5058444;28;20397;-54
2022/09/19 05:31:04;;;;;;;10.85;3.33;;;10.80;99.90;;;;;;5057746;28;20028;-54
2022/09/19 05:33:29;;;;;;;12.32;3.17;;;10.90;99.90;;;;;;5057890;28;20481;-54
2022/09/19 05:36:00;;;;;;;14.43;3.40;;;10.90;99.90;;;;;;5058409;28;20036;-54
2022/09/19 05:38:26;;;;;;;13.13;3.38;;;11.10;99.90;;;;;;5058562;28;20051;-54
2022/09/19 05:40:53;;;;;;;8.32;3.38;;;11.00;99.90;;;;;;5073542;28;20104;-54
2022/09/19 05:43:19;;;;;;;13.70;3.63;;;11.10;99.90;;;;;;5057672;28;20500;-54
2022/09/19 05:45:44;;;;;;;13.27;3.40;;;11.20;99.90;;;;;;5057454;28;20033;-54
2022/09/19 05:48:10;;;;;;;12.43;3.30;;;11.20;99.90;;;;;;5057768;28;20435;-54
2022/09/19 05:50:36;;;;;;;12.00;3.33;;;11.30;99.90;;;;;;5058051;28;20021;-54
2022/09/19 05:55:47;;;;;;;9.88;2.90;;;11.40;99.90;;;;;;5057288;28;20527;-54
2022/09/19 05:58:15;;;;;;;11.20;3.10;;;11.40;99.90;;;;;;5058073;28;20029;-55
2022/09/19 06:00:40;;;;;;;14.45;3.58;;;11.40;99.90;;;;;;5055771;28;20452;-54
2022/09/19 06:03:09;;;;;;;13.98;3.38;;;11.40;99.90;;;;;;5057341;28;20044;-54
2022/09/19 06:05:40;;;;;;;12.45;3.13;;;11.50;99.90;;;;;;5054667;28;21859;-55
2022/09/19 06:08:07;;;;;;;10.80;3.25;;;11.50;99.90;;;;;;5051907;28;20036;-52
2022/09/19 06:10:37;;;;;;;9.77;3.45;;;11.50;99.90;;;;;;5048145;28;20040;-55
2022/09/19 06:13:03;;;;;;;11.40;3.17;;;11.60;99.90;;;;;;5047598;28;20060;-56
2022/09/19 06:15:28;;;;;;;10.48;2.92;;;11.60;99.90;;;;;;5048438;28;20090;-54
2022/09/19 06:17:58;;;;;;;16.65;3.42;;;11.70;99.90;;;;;;5038728;28;20067;-54
2022/09/19 06:20:24;;;;;;;12.82;3.63;;;11.70;99.90;;;;;;5044602;28;20048;-54
2022/09/19 06:23:00;;;;;;;13.70;3.30;;;11.70;99.90;;;;;;5050508;28;20496;-54
2022/09/19 06:25:26;;;;;;;22.83;4.15;;;11.80;99.90;;;;;;5035572;28;20029;-54
2022/09/19 06:27:53;;;;;;;12.90;2.97;;;11.90;99.90;;;;;;5044611;28;20043;-55
2022/09/19 06:30:19;;;;;;;19.75;3.22;;;12.00;99.90;;;;;;5043420;28;20191;-55
2022/09/19 06:32:45;;;;;;;12.98;3.20;;;12.10;99.90;;;;;;5041296;28;20112;-54
2022/09/19 06:35:10;;;;;;;9.85;2.40;;;12.30;99.90;;;;;;5050835;28;20037;-54
2022/09/19 06:37:36;;;;;;;12.43;2.67;;;12.30;99.90;;;;;;5038883;28;20029;-54
2022/09/19 06:40:02;;;;;;;12.70;2.80;;;12.40;99.90;;;;;;5039065;28;20017;-53
2022/09/19 06:42:28;;;;;;;10.23;2.20;;;12.50;99.90;;;;;;5038880;28;20029;-54
2022/09/19 06:44:54;;;;;;;12.60;2.60;;;12.50;99.90;;;;;;5037659;28;20501;-55
2022/09/19 06:47:19;;;;;;;11.73;2.22;;;12.40;99.90;;;;;;5037304;28;20668;-55
2022/09/19 06:49:45;;;;;;;10.43;2.30;;;12.40;99.90;;;;;;5038300;28;20128;-55
2022/09/19 06:52:10;;;;;;;10.65;2.25;;;12.30;99.90;;;;;;5027506;28;20481;-54
2022/09/19 06:54:36;;;;;;;18.88;2.83;;;12.20;99.90;;;;;;5041635;28;20032;-55
2022/09/19 06:57:02;;;;;;;14.65;2.20;;;12.10;99.90;;;;;;5039512;28;20094;-54
2022/09/19 06:59:27;;;;;;;15.23;2.65;;;12.10;99.90;;;;;;5042453;28;20082;-54
2022/09/19 07:01:53;;;;;;;16.02;3.00;;;12.10;99.90;;;;;;5039623;28;20124;-54
2022/09/19 07:04:19;;;;;;;12.25;2.67;;;12.20;99.90;;;;;;5038393;28;20079;-54
2022/09/19 07:06:45;;;;;;;7.15;2.30;;;12.30;99.90;;;;;;5042212;28;20036;-54
2022/09/19 07:09:10;;;;;;;8.82;2.60;;;12.40;99.90;;;;;;5038762;28;20032;-54
2022/09/19 07:11:37;;;;;;;11.82;2.80;;;12.40;99.90;;;;;;5038386;28;20040;-54
2022/09/19 07:14:03;;;;;;;11.48;3.42;;;12.50;99.90;;;;;;5039542;28;20028;-52
2022/09/19 07:16:30;;;;;;;11.13;2.83;;;12.60;99.90;;;;;;5039284;28;20569;-52
2022/09/19 07:18:56;;;;;;;10.98;3.00;;;12.80;99.90;;;;;;5039811;28;20056;-52
2022/09/19 07:21:21;;;;;;;13.48;3.30;;;12.80;99.90;;;;;;5037291;28;20129;-54
2022/09/19 07:23:47;;;;;;;10.70;3.17;;;13.10;99.90;;;;;;5035564;28;20029;-53
2022/09/19 07:26:14;;;;;;;12.38;2.70;;;13.30;99.90;;;;;;5039210;28;20120;-53
2022/09/19 07:28:40;;;;;;;11.95;2.88;;;13.30;99.90;;;;;;5035153;28;20552;-53
2022/09/19 07:31:05;;;;;;;11.10;2.78;;;13.50;99.90;;;;;;5037040;28;20056;-54
2022/09/19 07:33:31;;;;;;;16.58;3.53;;;13.60;99.90;;;;;;5034725;28;20428;-54
2022/09/19 07:35:57;;;;;;;15.15;2.85;;;13.80;99.90;;;;;;5036042;28;20148;-54
2022/09/19 07:38:24;;;;;;;9.60;3.00;;;14.00;99.90;;;;;;5040692;28;20024;-55
2022/09/19 07:40:51;;;;;;;10.82;3.05;;;14.40;99.90;;;;;;5039835;28;20044;-55
2022/09/19 07:43:16;;;;;;;10.55;2.78;;;14.50;99.90;;;;;;5053180;28;20138;-55
2022/09/19 07:45:47;;;;;;;13.27;2.63;;;15.00;99.90;;;;;;5038517;28;20143;-55
2022/09/19 07:48:14;;;;;;;8.52;2.60;;;15.80;99.90;;;;;;5034233;28;20198;-55
2022/09/19 07:50:40;;;;;;;7.30;2.83;;;17.00;99.90;;;;;;5040666;28;20024;-55
2022/09/19 07:53:09;;;;;;;8.63;2.00;;;17.90;99.90;;;;;;5035580;28;20059;-55
2022/09/19 07:55:35;;;;;;;6.75;1.88;;;19.10;99.90;;;;;;5038902;28;20033;-55
2022/09/19 07:58:03;;;;;;;9.77;2.30;;;19.50;99.90;;;;;;5035751;28;20033;-55
2022/09/19 08:00:30;;;;;;;7.60;1.67;;;19.40;99.90;;;;;;5039084;28;20036;-55
2022/09/19 08:02:58;;;;;;;9.15;1.85;;;19.80;99.90;;;;;;5032791;28;20524;-55
2022/09/19 08:05:26;;;;;;;7.80;2.03;;;19.50;99.90;;;;;;5035079;28;20021;-55
2022/09/19 08:07:52;;;;;;;12.35;2.15;;;19.60;99.90;;;;;;5036546;28;20029;-55
2022/09/19 08:10:18;;;;;;;7.13;1.75;;;19.30;99.90;;;;;;5030699;28;20075;-55
2022/09/19 08:12:44;;;;;;;8.20;1.80;;;19.40;99.90;;;;;;5030645;28;20029;-56
2022/09/19 08:15:15;;;;;;;8.85;2.10;;;19.50;99.90;;;;;;5033461;28;20080;-55
2022/09/19 08:17:43;;;;;;;13.90;2.40;;;19.40;99.90;;;;;;5037344;28;20032;-59
2022/09/19 08:20:08;;;;;;;13.25;2.67;;;19.50;99.90;;;;;;5036833;28;20382;-56
2022/09/19 08:22:34;;;;;;;13.77;3.22;;;19.70;99.90;;;;;;5041830;28;20032;-55
2022/09/19 08:25:00;;;;;;;10.10;1.95;;;19.40;99.90;;;;;;5038331;28;20055;-55
2022/09/19 08:27:26;;;;;;;8.20;1.90;;;18.70;99.90;;;;;;5036985;28;20104;-55
2022/09/19 08:29:52;;;;;;;9.45;2.13;;;18.00;99.90;;;;;;5029197;28;20041;-55
2022/09/19 08:32:17;;;;;;;7.50;2.25;;;17.40;99.90;;;;;;5030680;28;20031;-56
2022/09/19 08:34:43;;;;;;;8.38;1.70;;;17.00;99.90;;;;;;5034980;28;20724;-56
2022/09/19 08:37:09;;;;;;;9.10;1.80;;;16.80;99.90;;;;;;5030467;28;20051;-56
2022/09/19 08:39:34;;;;;;;7.93;1.90;;;16.60;99.90;;;;;;5040502;28;20122;-55
2022/09/19 08:42:22;;;;;;;11.27;2.28;;;16.60;99.90;;;;;;5037397;28;20282;-55
2022/09/19 08:45:13;;;;;;;14.23;2.40;;;16.70;99.90;;;;;;5039433;28;20029;-55
2022/09/19 08:47:41;;;;;;;9.98;2.40;;;16.70;99.90;;;;;;5034413;28;20353;-55
2022/09/19 08:50:15;;;;;;;11.88;2.10;;;16.60;99.90;;;;;;5037875;28;20029;-56
2022/09/19 08:52:47;;;;;;;9.68;1.88;;;16.70;99.90;;;;;;5035926;28;20029;-56
2022/09/19 08:55:33;;;;;;;7.60;1.60;;;17.00;99.90;;;;;;5035719;28;20029;-56
2022/09/19 08:58:02;;;;;;;10.10;1.95;;;16.90;99.90;;;;;;5040126;28;20513;-56
2022/09/19 09:00:42;;;;;;;7.22;2.00;;;16.90;99.90;;;;;;5039350;28;20021;-56
2022/09/19 09:03:14;;;;;;;9.32;1.50;;;17.00;99.90;;;;;;5039209;28;20493;-56
2022/09/19 09:05:44;;;;;;;10.30;2.10;;;17.30;99.90;;;;;;5036891;28;20070;-56
2022/09/19 09:08:15;;;;;;;8.82;1.83;;;17.60;99.90;;;;;;5038382;28;20120;-56
2022/09/19 09:10:55;;;;;;;7.20;1.40;;;17.90;99.90;;;;;;5037426;28;20155;-56
2022/09/19 09:13:49;;;;;;;8.80;2.08;;;18.10;99.90;;;;;;5037979;28;20082;-56
2022/09/19 09:16:30;;;;;;;7.55;1.60;;;18.20;99.90;;;;;;5037968;28;20068;-56
2022/09/19 09:19:17;;;;;;;6.63;1.73;;;18.20;99.90;;;;;;5035810;28;20025;-56
2022/09/19 09:22:06;;;;;;;7.47;1.80;;;18.20;99.90;;;;;;5037567;28;20037;-56
2022/09/19 09:24:39;;;;;;;8.48;1.70;;;18.20;99.90;;;;;;5036323;28;20021;-56
2022/09/19 09:27:13;;;;;;;6.10;1.25;;;18.70;99.90;;;;;;5037530;28;20033;-56
2022/09/19 09:29:45;;;;;;;7.90;1.73;;;19.20;99.90;;;;;;5037332;28;20033;-56
2022/09/19 09:32:22;;;;;;;8.32;1.50;;;19.10;99.90;;;;;;5038615;28;20032;-56
2022/09/19 09:34:58;;;;;;;10.88;2.00;;;18.80;99.90;;;;;;5035416;28;20148;-56
2022/09/19 09:37:31;;;;;;;8.80;1.67;;;18.60;99.90;;;;;;5037163;28;20117;-56
2022/09/19 09:40:09;;;;;;;9.23;1.63;;;18.40;99.90;;;;;;5038807;28;20035;-56
2022/09/19 09:43:05;;;;;;;8.98;1.83;;;18.20;99.90;;;;;;5037495;28;20436;-56
2022/09/19 09:45:35;;;;;;;8.00;1.25;;;17.80;99.90;;;;;;5041821;28;20036;-54
2022/09/19 09:48:26;;;;;;;9.38;2.08;;;17.70;99.90;;;;;;5037809;28;20037;-54
2022/09/19 09:51:14;;;;;;;6.70;1.70;;;17.80;99.90;;;;;;5034855;28;20028;-54
2022/09/19 09:56:14;;;;;;;11.75;1.90;;;18.10;99.90;;;;;;5038799;28;20091;-54
2022/09/19 09:56:58;;;;;;;10.63;1.98;;;18.20;99.90;;;;;;5036383;28;21037;-54
2022/09/19 10:05:53;;;;;;;7.30;1.77;;;18.30;99.90;;;;;;5030658;28;20048;-55
2022/09/19 10:08:28;;;;;;;7.78;1.80;;;18.80;99.90;;;;;;5035978;28;20064;-55
2022/09/19 10:11:08;;;;;;;6.65;2.00;;;19.30;99.90;;;;;;5038421;28;20462;-55
2022/09/19 10:13:45;;;;;;;8.50;1.90;;;19.30;99.90;;;;;;5040594;28;20083;-55
2022/09/19 10:16:17;;;;;;;12.75;2.47;;;18.70;99.90;;;;;;5040923;28;20256;-55
2022/09/19 10:18:55;;;;;;;9.52;2.00;;;18.20;99.90;;;;;;5030486;28;20056;-57
2022/09/19 10:21:20;;;;;;;10.02;2.35;;;17.60;99.90;;;;;;5036487;28;20369;-60
2022/09/19 10:23:46;;;;;;;15.20;3.20;;;17.10;99.90;;;;;;5023152;28;20029;-60
2022/09/19 10:26:19;;;;;;;11.05;1.90;;;16.50;99.90;;;;;;5027275;28;20147;-60
2022/09/19 10:28:59;;;;;;;10.45;1.63;;;16.20;99.90;;;;;;5024920;28;20033;-60
2022/09/19 10:31:38;;;;;;;7.68;1.83;;;15.90;99.90;;;;;;5034287;28;20029;-59
2022/09/19 10:34:22;;;;;;;9.20;1.60;;;15.60;99.90;;;;;;5029848;28;20156;-59
2022/09/19 10:36:48;;;;;;;7.72;1.45;;;15.40;99.90;;;;;;5033435;28;20758;-60
2022/09/19 10:39:16;;;;;;;9.27;1.50;;;15.60;99.90;;;;;;5037215;28;20381;-60
2022/09/19 10:41:43;;;;;;;9.57;1.52;;;15.80;99.90;;;;;;5039899;28;20052;-58
2022/09/19 10:44:38;;;;;;;12.65;1.50;;;16.10;99.90;;;;;;5037090;28;20080;-58
2022/09/19 10:47:12;;;;;;;9.27;1.70;;;16.50;99.90;;;;;;5035734;28;20425;-58
2022/09/19 10:49:47;;;;;;;18.20;2.15;;;16.60;99.90;;;;;;5040781;28;20517;-57
2022/09/19 10:52:30;;;;;;;10.05;1.60;;;16.40;99.90;;;;;;5036388;28;20133;-57
2022/09/19 10:54:58;;;;;;;8.68;1.35;;;16.40;99.90;;;;;;5041457;28;20036;-57
2022/09/19 10:57:45;;;;;;;10.63;1.95;;;16.50;99.90;;;;;;5039485;28;20130;-57
2022/09/19 11:00:50;;;;;;;6.88;1.50;;;16.50;99.90;;;;;;5039270;28;20013;-54
2022/09/19 11:03:23;;;;;;;13.25;1.67;;;16.90;99.90;;;;;;4987102;28;20478;-54
2022/09/19 11:06:03;;;;;;;4.35;1.02;;;17.40;99.90;;;;;;5034751;28;20033;-54
2022/09/19 11:08:30;;;;;;;3.67;1.08;;;17.70;99.90;;;;;;5031578;28;20073;-54
2022/09/19 11:10:58;;;;;;;9.75;1.30;;;18.00;99.90;;;;;;5025602;28;20169;-56
2022/09/19 11:13:24;;;;;;;6.32;1.23;;;18.20;99.90;;;;;;5028983;28;20115;-56
2022/09/19 11:16:03;;;;;;;5.68;1.20;;;18.40;99.90;;;;;;5031543;28;20543;-57
2022/09/19 11:19:03;;;;;;;5.00;1.10;;;18.10;99.90;;;;;;5035090;28;20240;-57
2022/09/19 11:21:41;;;;;;;6.95;1.27;;;18.10;99.90;;;;;;5039899;28;21513;-59
2022/09/19 11:24:28;;;;;;;6.72;1.60;;;18.10;99.90;;;;;;5037397;28;20098;-57
2022/09/19 11:27:06;;;;;;;6.30;1.90;;;17.50;99.90;;;;;;5034419;28;20401;-58
2022/09/19 11:29:53;;;;;;;7.10;1.27;;;17.10;99.90;;;;;;5030920;28;20438;-57
2022/09/19 11:32:34;;;;;;;5.47;1.27;;;16.80;99.90;;;;;;5033890;28;20060;-55
2022/09/19 11:34:59;;;;;;;5.30;1.13;;;16.50;99.90;;;;;;5035705;28;20032;-55
2022/09/19 11:37:28;;;;;;;5.88;1.05;;;16.70;99.90;;;;;;5036030;28;20029;-55
2022/09/19 11:40:21;;;;;;;4.97;1.20;;;17.50;99.90;;;;;;5036760;28;20104;-55
2022/09/19 11:42:57;;;;;;;4.70;1.25;;;18.00;99.90;;;;;;5032831;28;20033;-58
2022/09/19 11:45:28;;;;;;;3.53;1.10;;;18.40;99.90;;;;;;5038887;28;20059;-57
2022/09/19 11:48:02;;;;;;;6.17;1.20;;;18.40;99.90;;;;;;5041469;28;20031;-57
2022/09/19 11:50:56;;;;;;;7.03;1.38;;;18.40;99.90;;;;;;5023446;28;20024;-56
2022/09/19 11:53:40;;;;;;;9.32;1.33;;;19.60;99.90;;;;;;5031174;28;20019;-57
2022/09/19 11:56:26;;;;;;;5.90;1.42;;;20.90;99.90;;;;;;5025969;28;20039;-57
2022/09/19 11:59:06;;;;;;;5.30;1.15;;;21.70;99.90;;;;;;4997335;28;20044;-58
2022/09/19 12:01:46;;;;;;;5.45;1.15;;;22.50;99.90;;;;;;5033701;28;20131;-59
2022/09/19 12:04:23;;;;;;;4.13;1.20;;;23.90;99.90;;;;;;5029735;28;20017;-59
2022/09/19 12:07:16;;;;;;;7.60;1.52;;;24.60;99.90;;;;;;5034754;28;20060;-59
2022/09/19 12:09:51;;;;;;;5.72;1.40;;;23.80;99.90;;;;;;5028981;28;20124;-58
2022/09/19 12:12:21;;;;;;;7.50;1.50;;;22.80;99.90;;;;;;5034553;28;20410;-59
2022/09/19 12:14:54;;;;;;;5.72;1.13;;;22.00;99.90;;;;;;5026563;28;20749;-59
2022/09/19 12:17:25;;;;;;;;;;;21.50;99.90;;;;;;5029542;28;20068;-58
2022/09/19 12:19:58;;;;;;;4.68;1.48;;;21.60;99.90;;;;;;5033293;28;19966;-59
2022/09/19 12:22:28;;;;;;;;;;;21.40;99.90;;;;;;5035507;28;20586;-59
2022/09/19 12:25:20;;;;;;;6.43;0.88;;;20.70;99.90;;;;;;5033052;28;19912;-58
2022/09/19 12:27:46;;;;;;;;;;;20.60;99.90;;;;;;5031175;28;20166;-58
2022/09/19 12:30:20;;;;;;;7.03;1.05;;;20.40;99.90;;;;;;5031122;28;20054;-58
2022/09/19 12:32:59;;;;;;;7.13;1.13;;;20.60;99.90;;;;;;5031144;28;20563;-56
2022/09/19 12:35:36;;;;;;;7.88;1.35;;;21.50;99.90;;;;;;5034355;28;20104;-56
2022/09/19 12:38:24;;;;;;;5.10;1.25;;;21.50;99.90;;;;;;5034058;28;20083;-56
2022/09/19 12:41:14;;;;;;;4.57;1.20;;;21.50;99.90;;;;;;5039498;28;20036;-57
2022/09/19 12:44:01;;;;;;;6.03;1.52;;;21.10;99.90;;;;;;5033931;28;20071;-56
2022/09/19 12:46:34;;;;;;;7.13;1.10;;;21.00;99.90;;;;;;5042140;28;20360;-57
2022/09/19 12:49:08;;;;;;;;;;;20.90;99.90;;;;;;5033735;28;20033;-57
2022/09/19 12:51:50;;;;;;;7.30;1.05;;;20.40;99.90;;;;;;5038781;28;19916;-58
2022/09/19 12:54:25;;;;;;;9.20;1.95;;;20.90;99.90;;;;;;5032009;28;20171;-58
2022/09/19 12:57:05;;;;;;;6.35;1.10;;;21.60;99.90;;;;;;5032464;28;20044;-57
2022/09/19 12:59:36;;;;;;;7.13;1.10;;;22.60;99.20;;;;;;5040286;28;20104;-57
2022/09/19 13:02:28;;;;;;;12.98;1.45;;;23.30;96.50;;;;;;5032039;28;20053;-57
2022/09/19 13:05:22;;;;;;;8.10;1.10;;;24.10;94.90;;;;;;5038546;28;20115;-57
2022/09/19 13:08:36;;;;;;;12.93;1.42;;;24.30;94.20;;;;;;5037364;28;20021;-57
2022/09/19 13:11:21;;;;;;;8.13;1.08;;;24.30;93.30;;;;;;5009883;28;20041;-59
2022/09/19 13:13:52;;;;;;;5.72;1.27;;;24.90;88.70;;;;;;5031236;28;20076;-58
2022/09/19 13:16:24;;;;;;;5.20;1.10;;;24.70;88.40;;;;;;5025899;28;20032;-58
2022/09/19 13:24:35;;;;;;;4.40;1.02;;;25.00;86.30;;;;;;5029262;28;20136;-59
2022/09/19 13:27:02;;;;;;;4.57;1.20;;;25.30;85.60;;;;;;5033296;28;20021;-58
2022/09/19 13:29:27;;;;;;;7.57;1.17;;;25.00;82.70;;;;;;5032137;28;20640;-58